sensor_id;sensor_type;location;lat;lon;timestamp;temperature;humidity
15656;DHT22;7928;43.614;1.456;2023-06-14T00:00:26;18.00;99.90
15656;DHT22;7928;43.614;1.456;2023-06-14T00:02:53;18.00;99.90
15656;DHT22;7928;43.614;1.456;2023-06-14T00:05:22;17.90;99.90
15656;DHT22;7928;43.614;1.456;2023-06-14T00:07:50;18.00;99.90
15656;DHT22;7928;43.614;1.456;2023-06-14T00:10:19;17.90;99.90
15656;DHT22;7928;43.614;1.456;2023-06-14T00:12:46;18.00;99.90
15656;DHT22;7928;43.614;1.456;2023-06-14T00:15:13;18.00;99.90
15656;DHT22;7928;43.614;1.456;2023-06-14T00:17:40;18.10;99.90
15656;DHT22;7928;43.614;1.456;2023-06-14T00:20:09;18.10;99.90
15656;DHT22;7928;43.614;1.456;2023-06-14T00:22:37;18.10;99.90
15656;DHT22;7928;43.614;1.456;2023-06-14T00:25:05;18.10;99.90
15656;DHT22;7928;43.614;1.456;2023-06-14T00:27:32;18.10;99.90
15656;DHT22;7928;43.614;1.456;2023-06-14T00:29:59;18.10;99.90
15656;DHT22;7928;43.614;1.456;2023-06-14T00:32:26;18.00;99.90
15656;DHT22;7928;43.614;1.456;2023-06-14T00:34:53;18.10;99.90
15656;DHT22;7928;43.614;1.456;2023-06-14T00:37:20;18.10;99.90
15656;DHT22;7928;43.614;1.456;2023-06-14T00:39:48;18.00;99.90
15656;DHT22;7928;43.614;1.456;2023-06-14T00:42:23;18.10;99.90
15656;DHT22;7928;43.614;1.456;2023-06-14T00:44:51;18.00;99.90
15656;DHT22;7928;43.614;1.456;2023-06-14T00:47:18;18.00;99.90
15656;DHT22;7928;43.614;1.456;2023-06-14T00:49:46;18.00;99.90
15656;DHT22;7928;43.614;1.456;2023-06-14T00:52:13;18.00;99.90
15656;DHT22;7928;43.614;1.456;2023-06-14T00:54:41;18.00;99.90
15656;DHT22;7928;43.614;1.456;2023-06-14T00:57:09;18.00;99.90
15656;DHT22;7928;43.614;1.456;2023-06-14T00:59:42;18.00;99.90
15656;DHT22;7928;43.614;1.456;2023-06-14T01:02:09;18.10;99.90
15656;DHT22;7928;43.614;1.456;2023-06-14T01:04:37;18.20;99.90
15656;DHT22;7928;43.614;1.456;2023-06-14T01:07:10;18.20;99.90
15656;DHT22;7928;43.614;1.456;2023-06-14T01:09:50;18.20;99.90
15656;DHT22;7928;43.614;1.456;2023-06-14T01:12:28;18.20;99.90
15656;DHT22;7928;43.614;1.456;2023-06-14T01:14:59;18.20;99.90
15656;DHT22;7928;43.614;1.456;2023-06-14T01:17:28;18.20;99.90
15656;DHT22;7928;43.614;1.456;2023-06-14T01:19:57;18.20;99.90
15656;DHT22;7928;43.614;1.456;2023-06-14T01:22:25;18.20;99.90
15656;DHT22;7928;43.614;1.456;2023-06-14T01:24:54;18.20;99.90
15656;DHT22;7928;43.614;1.456;2023-06-14T01:27:23;18.30;99.90
15656;DHT22;7928;43.614;1.456;2023-06-14T01:29:55;18.30;99.90
15656;DHT22;7928;43.614;1.456;2023-06-14T01:32:23;18.40;99.90
15656;DHT22;7928;43.614;1.456;2023-06-14T01:34:51;18.50;99.90
15656;DHT22;7928;43.614;1.456;2023-06-14T01:37:19;18.50;99.90
15656;DHT22;7928;43.614;1.456;2023-06-14T01:39:47;18.50;99.90
15656;DHT22;7928;43.614;1.456;2023-06-14T01:42:18;18.50;99.90
15656;DHT22;7928;43.614;1.456;2023-06-14T01:44:46;18.50;99.90
15656;DHT22;7928;43.614;1.456;2023-06-14T01:47:14;18.50;99.90
15656;DHT22;7928;43.614;1.456;2023-06-14T01:49:42;18.50;99.90
15656;DHT22;7928;43.614;1.456;2023-06-14T01:52:09;18.50;99.90
15656;DHT22;7928;43.614;1.456;2023-06-14T01:54:36;18.50;99.90
15656;DHT22;7928;43.614;1.456;2023-06-14T01:57:07;18.50;99.90
15656;DHT22;7928;43.614;1.456;2023-06-14T01:59:36;18.50;99.90
15656;DHT22;7928;43.614;1.456;2023-06-14T02:02:03;18.50;99.90
15656;DHT22;7928;43.614;1.456;2023-06-14T02:04:30;18.50;99.90
15656;DHT22;7928;43.614;1.456;2023-06-14T02:06:57;18.50;99.90
15656;DHT22;7928;43.614;1.456;2023-06-14T02:09:24;18.50;99.90
15656;DHT22;7928;43.614;1.456;2023-06-14T02:11:51;18.50;99.90
15656;DHT22;7928;43.614;1.456;2023-06-14T02:14:18;18.40;99.90
15656;DHT22;7928;43.614;1.456;2023-06-14T02:16:47;18.40;99.90
15656;DHT22;7928;43.614;1.456;2023-06-14T02:19:15;18.50;99.90
15656;DHT22;7928;43.614;1.456;2023-06-14T02:21:42;18.50;99.90
15656;DHT22;7928;43.614;1.456;2023-06-14T02:24:10;18.40;99.90
15656;DHT22;7928;43.614;1.456;2023-06-14T02:26:37;18.40;99.90
15656;DHT22;7928;43.614;1.456;2023-06-14T02:29:04;18.40;99.90
15656;DHT22;7928;43.614;1.456;2023-06-14T02:31:34;18.40;99.90
15656;DHT22;7928;43.614;1.456;2023-06-14T02:34:03;18.40;99.90
15656;DHT22;7928;43.614;1.456;2023-06-14T02:36:30;18.40;99.90
15656;DHT22;7928;43.614;1.456;2023-06-14T02:38:57;18.40;99.90
15656;DHT22;7928;43.614;1.456;2023-06-14T02:41:24;18.40;99.90
15656;DHT22;7928;43.614;1.456;2023-06-14T02:43:51;18.40;99.90
15656;DHT22;7928;43.614;1.456;2023-06-14T02:46:18;18.40;99.90
15656;DHT22;7928;43.614;1.456;2023-06-14T02:48:45;18.40;99.90
15656;DHT22;7928;43.614;1.456;2023-06-14T02:51:14;18.40;99.90
15656;DHT22;7928;43.614;1.456;2023-06-14T02:53:41;18.30;99.90
15656;DHT22;7928;43.614;1.456;2023-06-14T02:56:09;18.30;99.90
15656;DHT22;7928;43.614;1.456;2023-06-14T02:58:37;18.30;99.90
15656;DHT22;7928;43.614;1.456;2023-06-14T03:01:05;18.30;99.90
15656;DHT22;7928;43.614;1.456;2023-06-14T03:03:33;18.30;99.90
15656;DHT22;7928;43.614;1.456;2023-06-14T03:06:00;18.30;99.90
15656;DHT22;7928;43.614;1.456;2023-06-14T03:08:32;18.30;99.90
15656;DHT22;7928;43.614;1.456;2023-06-14T03:11:04;18.30;99.90
15656;DHT22;7928;43.614;1.456;2023-06-14T03:13:31;18.30;99.90
15656;DHT22;7928;43.614;1.456;2023-06-14T03:15:59;18.30;99.90
15656;DHT22;7928;43.614;1.456;2023-06-14T03:18:28;18.30;99.90
15656;DHT22;7928;43.614;1.456;2023-06-14T03:20:56;18.20;99.90
15656;DHT22;7928;43.614;1.456;2023-06-14T03:23:24;18.30;99.90
15656;DHT22;7928;43.614;1.456;2023-06-14T03:25:52;18.20;99.90
15656;DHT22;7928;43.614;1.456;2023-06-14T03:28:19;18.20;99.90
15656;DHT22;7928;43.614;1.456;2023-06-14T03:30:46;18.20;99.90
15656;DHT22;7928;43.614;1.456;2023-06-14T03:33:13;18.10;99.90
15656;DHT22;7928;43.614;1.456;2023-06-14T03:35:41;18.20;99.90
15656;DHT22;7928;43.614;1.456;2023-06-14T03:38:08;18.10;99.90
15656;DHT22;7928;43.614;1.456;2023-06-14T03:40:35;18.10;99.90
15656;DHT22;7928;43.614;1.456;2023-06-14T03:43:04;18.20;99.90
15656;DHT22;7928;43.614;1.456;2023-06-14T03:45:31;18.10;99.90
15656;DHT22;7928;43.614;1.456;2023-06-14T03:47:58;18.10;99.90
15656;DHT22;7928;43.614;1.456;2023-06-14T03:50:26;18.10;99.90
15656;DHT22;7928;43.614;1.456;2023-06-14T03:52:53;18.10;99.90
15656;DHT22;7928;43.614;1.456;2023-06-14T03:55:20;18.10;99.90
15656;DHT22;7928;43.614;1.456;2023-06-14T03:57:50;18.10;99.90
15656;DHT22;7928;43.614;1.456;2023-06-14T04:00:19;18.10;99.90
15656;DHT22;7928;43.614;1.456;2023-06-14T04:02:46;18.20;99.90
15656;DHT22;7928;43.614;1.456;2023-06-14T04:05:13;18.30;99.90
15656;DHT22;7928;43.614;1.456;2023-06-14T04:07:42;18.20;99.90
15656;DHT22;7928;43.614;1.456;2023-06-14T04:10:11;18.20;99.90
15656;DHT22;7928;43.614;1.456;2023-06-14T04:12:39;18.30;99.90
15656;DHT22;7928;43.614;1.456;2023-06-14T04:15:07;18.20;99.90
15656;DHT22;7928;43.614;1.456;2023-06-14T04:17:37;18.30;99.90
15656;DHT22;7928;43.614;1.456;2023-06-14T04:20:06;18.30;99.90
15656;DHT22;7928;43.614;1.456;2023-06-14T04:22:35;18.30;99.90
15656;DHT22;7928;43.614;1.456;2023-06-14T04:25:02;18.30;99.90
15656;DHT22;7928;43.614;1.456;2023-06-14T04:27:31;18.40;99.90
15656;DHT22;7928;43.614;1.456;2023-06-14T04:30:01;18.30;99.90
15656;DHT22;7928;43.614;1.456;2023-06-14T04:32:29;18.40;99.90
15656;DHT22;7928;43.614;1.456;2023-06-14T04:35:00;18.30;99.90
15656;DHT22;7928;43.614;1.456;2023-06-14T04:37:29;18.30;99.90
15656;DHT22;7928;43.614;1.456;2023-06-14T04:39:56;18.30;99.90
15656;DHT22;7928;43.614;1.456;2023-06-14T04:42:23;18.40;99.90
15656;DHT22;7928;43.614;1.456;2023-06-14T04:44:56;18.40;99.90
15656;DHT22;7928;43.614;1.456;2023-06-14T04:47:24;18.40;99.90
15656;DHT22;7928;43.614;1.456;2023-06-14T04:49:56;18.40;99.90
15656;DHT22;7928;43.614;1.456;2023-06-14T04:52:24;18.40;99.90
15656;DHT22;7928;43.614;1.456;2023-06-14T04:54:52;18.40;99.90
15656;DHT22;7928;43.614;1.456;2023-06-14T04:57:19;18.40;99.90
15656;DHT22;7928;43.614;1.456;2023-06-14T04:59:47;18.40;99.90
15656;DHT22;7928;43.614;1.456;2023-06-14T05:02:21;18.40;99.90
15656;DHT22;7928;43.614;1.456;2023-06-14T05:04:49;18.40;99.90
15656;DHT22;7928;43.614;1.456;2023-06-14T05:07:16;18.40;99.90
15656;DHT22;7928;43.614;1.456;2023-06-14T05:09:45;18.40;99.90
15656;DHT22;7928;43.614;1.456;2023-06-14T05:12:12;18.40;99.90
15656;DHT22;7928;43.614;1.456;2023-06-14T05:14:39;18.40;99.90
15656;DHT22;7928;43.614;1.456;2023-06-14T05:17:06;18.40;99.90
15656;DHT22;7928;43.614;1.456;2023-06-14T05:19:33;18.50;99.90
15656;DHT22;7928;43.614;1.456;2023-06-14T05:22:01;18.50;99.90
15656;DHT22;7928;43.614;1.456;2023-06-14T05:24:28;18.50;99.90
15656;DHT22;7928;43.614;1.456;2023-06-14T05:26:57;18.50;99.90
15656;DHT22;7928;43.614;1.456;2023-06-14T05:29:24;18.50;99.90
15656;DHT22;7928;43.614;1.456;2023-06-14T05:31:51;18.60;99.90
15656;DHT22;7928;43.614;1.456;2023-06-14T05:34:18;18.60;99.90
15656;DHT22;7928;43.614;1.456;2023-06-14T05:36:45;18.60;99.90
15656;DHT22;7928;43.614;1.456;2023-06-14T05:39:12;18.60;99.90
15656;DHT22;7928;43.614;1.456;2023-06-14T05:41:40;18.70;99.90
15656;DHT22;7928;43.614;1.456;2023-06-14T05:44:08;18.70;99.90
15656;DHT22;7928;43.614;1.456;2023-06-14T05:46:35;18.70;99.90
15656;DHT22;7928;43.614;1.456;2023-06-14T05:49:02;18.70;99.90
15656;DHT22;7928;43.614;1.456;2023-06-14T05:51:29;18.80;99.90
15656;DHT22;7928;43.614;1.456;2023-06-14T05:53:56;18.90;99.90
15656;DHT22;7928;43.614;1.456;2023-06-14T05:56:23;18.90;99.90
15656;DHT22;7928;43.614;1.456;2023-06-14T05:58:52;18.90;99.90
15656;DHT22;7928;43.614;1.456;2023-06-14T06:01:20;19.00;99.90
15656;DHT22;7928;43.614;1.456;2023-06-14T06:03:47;18.90;99.90
15656;DHT22;7928;43.614;1.456;2023-06-14T06:06:14;19.00;99.90
15656;DHT22;7928;43.614;1.456;2023-06-14T06:08:42;19.00;99.90
15656;DHT22;7928;43.614;1.456;2023-06-14T06:11:09;19.00;99.90
15656;DHT22;7928;43.614;1.456;2023-06-14T06:13:36;19.00;99.90
15656;DHT22;7928;43.614;1.456;2023-06-14T06:16:04;19.00;99.90
15656;DHT22;7928;43.614;1.456;2023-06-14T06:18:33;19.10;99.90
15656;DHT22;7928;43.614;1.456;2023-06-14T06:21:00;19.10;99.90
15656;DHT22;7928;43.614;1.456;2023-06-14T06:23:28;19.10;99.90
15656;DHT22;7928;43.614;1.456;2023-06-14T06:25:55;19.10;99.90
15656;DHT22;7928;43.614;1.456;2023-06-14T06:28:22;19.20;99.90
15656;DHT22;7928;43.614;1.456;2023-06-14T06:30:49;19.10;99.90
15656;DHT22;7928;43.614;1.456;2023-06-14T06:33:17;19.20;99.90
15656;DHT22;7928;43.614;1.456;2023-06-14T06:35:45;19.20;99.90
15656;DHT22;7928;43.614;1.456;2023-06-14T06:38:12;19.30;99.90
15656;DHT22;7928;43.614;1.456;2023-06-14T06:40:39;19.40;99.90
15656;DHT22;7928;43.614;1.456;2023-06-14T06:43:06;19.30;99.90
15656;DHT22;7928;43.614;1.456;2023-06-14T06:45:33;19.30;99.90
15656;DHT22;7928;43.614;1.456;2023-06-14T06:48:00;19.30;99.90
15656;DHT22;7928;43.614;1.456;2023-06-14T06:50:27;19.30;99.90
15656;DHT22;7928;43.614;1.456;2023-06-14T06:52:55;19.40;99.90
15656;DHT22;7928;43.614;1.456;2023-06-14T06:55:22;19.40;99.90
15656;DHT22;7928;43.614;1.456;2023-06-14T06:57:49;19.40;99.90
15656;DHT22;7928;43.614;1.456;2023-06-14T07:00:18;19.50;99.90
15656;DHT22;7928;43.614;1.456;2023-06-14T07:02:45;19.50;99.90
15656;DHT22;7928;43.614;1.456;2023-06-14T07:05:12;19.60;99.90
15656;DHT22;7928;43.614;1.456;2023-06-14T07:07:40;19.50;99.90
15656;DHT22;7928;43.614;1.456;2023-06-14T07:10:08;19.60;99.90
15656;DHT22;7928;43.614;1.456;2023-06-14T07:12:36;19.50;99.90
15656;DHT22;7928;43.614;1.456;2023-06-14T07:15:06;19.60;99.90
15656;DHT22;7928;43.614;1.456;2023-06-14T07:17:34;19.50;99.90
15656;DHT22;7928;43.614;1.456;2023-06-14T07:20:01;19.60;99.90
15656;DHT22;7928;43.614;1.456;2023-06-14T07:22:38;19.60;99.90
15656;DHT22;7928;43.614;1.456;2023-06-14T07:25:08;19.60;99.90
15656;DHT22;7928;43.614;1.456;2023-06-14T07:27:35;19.60;99.90
15656;DHT22;7928;43.614;1.456;2023-06-14T07:30:02;19.60;99.90
15656;DHT22;7928;43.614;1.456;2023-06-14T07:32:29;19.60;99.90
15656;DHT22;7928;43.614;1.456;2023-06-14T07:34:56;19.60;99.90
15656;DHT22;7928;43.614;1.456;2023-06-14T07:37:23;19.60;99.90
15656;DHT22;7928;43.614;1.456;2023-06-14T07:39:50;19.60;99.90
15656;DHT22;7928;43.614;1.456;2023-06-14T07:42:19;19.70;99.90
15656;DHT22;7928;43.614;1.456;2023-06-14T07:44:46;19.80;99.90
15656;DHT22;7928;43.614;1.456;2023-06-14T07:47:13;19.80;99.90
15656;DHT22;7928;43.614;1.456;2023-06-14T07:49:40;19.80;99.90
15656;DHT22;7928;43.614;1.456;2023-06-14T07:52:07;19.80;99.90
15656;DHT22;7928;43.614;1.456;2023-06-14T07:54:35;19.80;99.90
15656;DHT22;7928;43.614;1.456;2023-06-14T07:57:02;19.90;99.90
15656;DHT22;7928;43.614;1.456;2023-06-14T07:59:30;19.70;99.90
15656;DHT22;7928;43.614;1.456;2023-06-14T08:01:58;19.90;99.90
15656;DHT22;7928;43.614;1.456;2023-06-14T08:04:25;20.00;99.90
15656;DHT22;7928;43.614;1.456;2023-06-14T08:06:52;20.10;99.90
15656;DHT22;7928;43.614;1.456;2023-06-14T08:09:19;20.10;99.90
15656;DHT22;7928;43.614;1.456;2023-06-14T08:11:46;20.30;99.90
15656;DHT22;7928;43.614;1.456;2023-06-14T08:14:13;20.30;99.90
15656;DHT22;7928;43.614;1.456;2023-06-14T08:16:41;20.40;99.90
15656;DHT22;7928;43.614;1.456;2023-06-14T08:19:08;20.50;99.90
15656;DHT22;7928;43.614;1.456;2023-06-14T08:21:36;20.70;99.90
15656;DHT22;7928;43.614;1.456;2023-06-14T08:24:03;20.90;99.90
15656;DHT22;7928;43.614;1.456;2023-06-14T08:26:30;21.00;99.90
15656;DHT22;7928;43.614;1.456;2023-06-14T08:28:57;21.10;99.90
15656;DHT22;7928;43.614;1.456;2023-06-14T08:31:24;21.20;99.90
15656;DHT22;7928;43.614;1.456;2023-06-14T08:33:54;21.30;99.90
15656;DHT22;7928;43.614;1.456;2023-06-14T08:36:21;21.30;99.90
15656;DHT22;7928;43.614;1.456;2023-06-14T08:38:48;21.20;99.90
15656;DHT22;7928;43.614;1.456;2023-06-14T08:41:20;21.20;99.90
15656;DHT22;7928;43.614;1.456;2023-06-14T08:43:47;21.20;99.90
15656;DHT22;7928;43.614;1.456;2023-06-14T08:46:17;21.30;99.90
15656;DHT22;7928;43.614;1.456;2023-06-14T08:48:46;21.50;99.90
15656;DHT22;7928;43.614;1.456;2023-06-14T08:51:18;21.70;99.90
15656;DHT22;7928;43.614;1.456;2023-06-14T08:53:51;21.70;99.90
15656;DHT22;7928;43.614;1.456;2023-06-14T08:56:19;21.90;99.90
15656;DHT22;7928;43.614;1.456;2023-06-14T08:58:47;22.20;99.90
15656;DHT22;7928;43.614;1.456;2023-06-14T09:01:16;22.40;99.90
15656;DHT22;7928;43.614;1.456;2023-06-14T09:03:43;22.50;99.90
15656;DHT22;7928;43.614;1.456;2023-06-14T09:06:10;22.50;99.90
15656;DHT22;7928;43.614;1.456;2023-06-14T09:08:42;22.40;99.90
15656;DHT22;7928;43.614;1.456;2023-06-14T09:11:11;22.50;99.90
15656;DHT22;7928;43.614;1.456;2023-06-14T09:13:38;22.50;99.90
15656;DHT22;7928;43.614;1.456;2023-06-14T09:16:06;22.40;99.90
15656;DHT22;7928;43.614;1.456;2023-06-14T09:18:37;22.40;99.90
15656;DHT22;7928;43.614;1.456;2023-06-14T09:21:06;22.50;99.90
15656;DHT22;7928;43.614;1.456;2023-06-14T09:23:36;22.80;99.90
15656;DHT22;7928;43.614;1.456;2023-06-14T09:26:08;22.90;99.90
15656;DHT22;7928;43.614;1.456;2023-06-14T09:28:35;22.90;99.90
15656;DHT22;7928;43.614;1.456;2023-06-14T09:31:02;23.00;99.90
15656;DHT22;7928;43.614;1.456;2023-06-14T09:33:31;22.90;99.90
15656;DHT22;7928;43.614;1.456;2023-06-14T09:35:58;23.10;99.90
15656;DHT22;7928;43.614;1.456;2023-06-14T09:38:25;23.30;99.90
15656;DHT22;7928;43.614;1.456;2023-06-14T09:40:55;23.40;99.90
15656;DHT22;7928;43.614;1.456;2023-06-14T09:43:24;23.60;99.90
15656;DHT22;7928;43.614;1.456;2023-06-14T09:45:54;23.30;99.90
15656;DHT22;7928;43.614;1.456;2023-06-14T09:48:21;23.00;99.90
15656;DHT22;7928;43.614;1.456;2023-06-14T09:50:50;22.90;99.90
15656;DHT22;7928;43.614;1.456;2023-06-14T09:53:21;23.10;99.90
15656;DHT22;7928;43.614;1.456;2023-06-14T09:55:50;23.30;99.90
15656;DHT22;7928;43.614;1.456;2023-06-14T09:58:20;23.60;99.90
15656;DHT22;7928;43.614;1.456;2023-06-14T10:00:51;23.90;99.90
15656;DHT22;7928;43.614;1.456;2023-06-14T10:03:24;24.10;99.90
15656;DHT22;7928;43.614;1.456;2023-06-14T10:05:52;24.00;99.90
15656;DHT22;7928;43.614;1.456;2023-06-14T10:08:24;24.10;99.90
15656;DHT22;7928;43.614;1.456;2023-06-14T10:10:53;24.10;99.90
15656;DHT22;7928;43.614;1.456;2023-06-14T10:13:22;24.20;99.90
15656;DHT22;7928;43.614;1.456;2023-06-14T10:15:57;24.60;99.90
15656;DHT22;7928;43.614;1.456;2023-06-14T10:18:32;24.70;99.90
15656;DHT22;7928;43.614;1.456;2023-06-14T10:21:06;24.90;99.90
15656;DHT22;7928;43.614;1.456;2023-06-14T10:23:38;24.70;99.90
15656;DHT22;7928;43.614;1.456;2023-06-14T10:26:07;24.80;99.90
15656;DHT22;7928;43.614;1.456;2023-06-14T10:28:37;24.40;99.90
15656;DHT22;7928;43.614;1.456;2023-06-14T10:31:06;24.70;99.90
15656;DHT22;7928;43.614;1.456;2023-06-14T10:33:34;25.10;99.90
15656;DHT22;7928;43.614;1.456;2023-06-14T10:36:24;25.60;99.90
15656;DHT22;7928;43.614;1.456;2023-06-14T10:39:01;25.70;99.90
15656;DHT22;7928;43.614;1.456;2023-06-14T10:41:31;25.90;99.90
15656;DHT22;7928;43.614;1.456;2023-06-14T10:47:07;26.00;99.90
15656;DHT22;7928;43.614;1.456;2023-06-14T10:49:40;25.90;99.90
15656;DHT22;7928;43.614;1.456;2023-06-14T10:52:09;26.00;99.90
15656;DHT22;7928;43.614;1.456;2023-06-14T10:54:59;25.90;99.90
15656;DHT22;7928;43.614;1.456;2023-06-14T10:57:26;25.50;99.90
15656;DHT22;7928;43.614;1.456;2023-06-14T10:59:53;25.40;99.90
15656;DHT22;7928;43.614;1.456;2023-06-14T11:02:51;25.60;99.90
15656;DHT22;7928;43.614;1.456;2023-06-14T11:05:24;25.60;99.90
15656;DHT22;7928;43.614;1.456;2023-06-14T11:08:21;26.20;99.90
15656;DHT22;7928;43.614;1.456;2023-06-14T11:10:54;26.40;99.90
15656;DHT22;7928;43.614;1.456;2023-06-14T11:13:26;26.20;99.90
15656;DHT22;7928;43.614;1.456;2023-06-14T11:15:53;26.90;99.90
15656;DHT22;7928;43.614;1.456;2023-06-14T11:18:23;26.50;99.90
15656;DHT22;7928;43.614;1.456;2023-06-14T11:20:52;26.30;99.90
15656;DHT22;7928;43.614;1.456;2023-06-14T11:23:21;27.20;99.90
15656;DHT22;7928;43.614;1.456;2023-06-14T11:25:50;27.90;99.90
15656;DHT22;7928;43.614;1.456;2023-06-14T11:28:17;27.40;99.90
15656;DHT22;7928;43.614;1.456;2023-06-14T11:30:47;27.00;99.90
15656;DHT22;7928;43.614;1.456;2023-06-14T11:33:17;27.30;99.90
15656;DHT22;7928;43.614;1.456;2023-06-14T11:35:46;28.30;99.90
15656;DHT22;7928;43.614;1.456;2023-06-14T11:38:13;28.90;99.90
15656;DHT22;7928;43.614;1.456;2023-06-14T11:40:40;28.30;99.90
15656;DHT22;7928;43.614;1.456;2023-06-14T11:43:07;28.50;99.90
15656;DHT22;7928;43.614;1.456;2023-06-14T11:45:34;28.30;99.90
15656;DHT22;7928;43.614;1.456;2023-06-14T11:48:02;27.60;99.90
15656;DHT22;7928;43.614;1.456;2023-06-14T11:50:30;27.90;99.90
15656;DHT22;7928;43.614;1.456;2023-06-14T11:53:00;28.50;99.90
15656;DHT22;7928;43.614;1.456;2023-06-14T11:55:32;29.40;99.90
15656;DHT22;7928;43.614;1.456;2023-06-14T11:58:02;30.20;99.90
15656;DHT22;7928;43.614;1.456;2023-06-14T12:00:30;29.40;99.90
15656;DHT22;7928;43.614;1.456;2023-06-14T12:02:57;28.50;99.90
15656;DHT22;7928;43.614;1.456;2023-06-14T12:05:25;28.00;99.90
15656;DHT22;7928;43.614;1.456;2023-06-14T12:07:59;27.70;99.90
15656;DHT22;7928;43.614;1.456;2023-06-14T12:10:28;29.00;99.90
15656;DHT22;7928;43.614;1.456;2023-06-14T12:12:57;30.50;99.90
15656;DHT22;7928;43.614;1.456;2023-06-14T12:15:27;31.70;99.90
15656;DHT22;7928;43.614;1.456;2023-06-14T12:17:54;31.50;99.90
15656;DHT22;7928;43.614;1.456;2023-06-14T12:20:21;32.10;99.90
15656;DHT22;7928;43.614;1.456;2023-06-14T12:22:52;31.90;99.90
15656;DHT22;7928;43.614;1.456;2023-06-14T12:25:31;30.40;99.90
15656;DHT22;7928;43.614;1.456;2023-06-14T12:27:59;29.60;99.90
15656;DHT22;7928;43.614;1.456;2023-06-14T12:30:27;30.50;99.90
15656;DHT22;7928;43.614;1.456;2023-06-14T12:32:53;29.40;99.90
15656;DHT22;7928;43.614;1.456;2023-06-14T12:35:21;30.10;99.90
15656;DHT22;7928;43.614;1.456;2023-06-14T12:37:48;31.20;99.90
15656;DHT22;7928;43.614;1.456;2023-06-14T12:40:15;32.40;99.90
15656;DHT22;7928;43.614;1.456;2023-06-14T12:42:44;31.50;99.90
15656;DHT22;7928;43.614;1.456;2023-06-14T12:45:13;31.70;99.90
15656;DHT22;7928;43.614;1.456;2023-06-14T12:47:40;32.00;99.90
15656;DHT22;7928;43.614;1.456;2023-06-14T12:50:08;32.90;99.90
15656;DHT22;7928;43.614;1.456;2023-06-14T12:52:35;33.00;99.90
15656;DHT22;7928;43.614;1.456;2023-06-14T12:55:03;32.00;99.90
15656;DHT22;7928;43.614;1.456;2023-06-14T12:57:31;32.60;99.90
15656;DHT22;7928;43.614;1.456;2023-06-14T13:00:00;32.60;99.90
15656;DHT22;7928;43.614;1.456;2023-06-14T13:02:27;33.20;99.90
15656;DHT22;7928;43.614;1.456;2023-06-14T13:04:54;32.60;99.90
15656;DHT22;7928;43.614;1.456;2023-06-14T13:07:22;33.10;99.90
15656;DHT22;7928;43.614;1.456;2023-06-14T13:09:49;32.10;99.90
15656;DHT22;7928;43.614;1.456;2023-06-14T13:12:16;31.00;99.90
15656;DHT22;7928;43.614;1.456;2023-06-14T13:14:43;30.60;99.90
15656;DHT22;7928;43.614;1.456;2023-06-14T13:17:11;31.80;99.90
15656;DHT22;7928;43.614;1.456;2023-06-14T13:19:38;32.10;99.90
15656;DHT22;7928;43.614;1.456;2023-06-14T13:22:06;32.80;99.90
15656;DHT22;7928;43.614;1.456;2023-06-14T13:24:34;33.20;99.90
15656;DHT22;7928;43.614;1.456;2023-06-14T13:27:01;32.80;99.90
15656;DHT22;7928;43.614;1.456;2023-06-14T13:29:28;32.10;99.90
15656;DHT22;7928;43.614;1.456;2023-06-14T13:31:56;30.80;99.90
15656;DHT22;7928;43.614;1.456;2023-06-14T13:34:25;31.80;99.90
15656;DHT22;7928;43.614;1.456;2023-06-14T13:36:52;32.50;99.90
15656;DHT22;7928;43.614;1.456;2023-06-14T13:39:19;33.10;99.90
15656;DHT22;7928;43.614;1.456;2023-06-14T13:41:46;31.50;99.90
15656;DHT22;7928;43.614;1.456;2023-06-14T13:44:13;30.00;99.90
15656;DHT22;7928;43.614;1.456;2023-06-14T13:46:41;31.20;99.90
15656;DHT22;7928;43.614;1.456;2023-06-14T13:49:09;31.90;99.90
15656;DHT22;7928;43.614;1.456;2023-06-14T13:51:39;32.20;99.90
15656;DHT22;7928;43.614;1.456;2023-06-14T13:54:06;30.70;99.90
15656;DHT22;7928;43.614;1.456;2023-06-14T13:56:33;29.90;99.90
15656;DHT22;7928;43.614;1.456;2023-06-14T13:59:00;30.20;99.90
15656;DHT22;7928;43.614;1.456;2023-06-14T14:01:27;30.80;99.90
15656;DHT22;7928;43.614;1.456;2023-06-14T14:03:54;30.50;99.90
15656;DHT22;7928;43.614;1.456;2023-06-14T14:06:21;30.20;99.90
15656;DHT22;7928;43.614;1.456;2023-06-14T14:08:50;29.30;99.90
15656;DHT22;7928;43.614;1.456;2023-06-14T14:11:18;29.70;99.90
15656;DHT22;7928;43.614;1.456;2023-06-14T14:13:46;30.90;99.90
15656;DHT22;7928;43.614;1.456;2023-06-14T14:16:13;31.10;99.90
15656;DHT22;7928;43.614;1.456;2023-06-14T14:18:40;31.70;99.90
15656;DHT22;7928;43.614;1.456;2023-06-14T14:21:07;31.80;99.90
15656;DHT22;7928;43.614;1.456;2023-06-14T14:23:35;31.80;99.90
15656;DHT22;7928;43.614;1.456;2023-06-14T14:26:03;31.70;99.90
15656;DHT22;7928;43.614;1.456;2023-06-14T14:28:30;31.00;99.90
15656;DHT22;7928;43.614;1.456;2023-06-14T14:30:58;29.80;99.90
15656;DHT22;7928;43.614;1.456;2023-06-14T14:33:25;29.30;99.90
15656;DHT22;7928;43.614;1.456;2023-06-14T14:35:52;29.20;99.90
15656;DHT22;7928;43.614;1.456;2023-06-14T14:38:19;29.90;99.90
15656;DHT22;7928;43.614;1.456;2023-06-14T14:40:47;30.20;99.90
15656;DHT22;7928;43.614;1.456;2023-06-14T14:43:15;29.50;99.90
15656;DHT22;7928;43.614;1.456;2023-06-14T14:45:42;30.20;99.90
15656;DHT22;7928;43.614;1.456;2023-06-14T14:48:09;29.70;99.90
15656;DHT22;7928;43.614;1.456;2023-06-14T14:50:36;28.50;99.90
15656;DHT22;7928;43.614;1.456;2023-06-14T14:53:04;28.00;99.90
15656;DHT22;7928;43.614;1.456;2023-06-14T14:55:31;27.60;99.90
15656;DHT22;7928;43.614;1.456;2023-06-14T14:58:00;28.00;99.90
15656;DHT22;7928;43.614;1.456;2023-06-14T15:00:29;28.40;99.90
15656;DHT22;7928;43.614;1.456;2023-06-14T15:02:56;29.60;99.90
15656;DHT22;7928;43.614;1.456;2023-06-14T15:05:23;30.70;99.90
15656;DHT22;7928;43.614;1.456;2023-06-14T15:07:50;31.40;99.90
15656;DHT22;7928;43.614;1.456;2023-06-14T15:10:17;31.70;99.90
15656;DHT22;7928;43.614;1.456;2023-06-14T15:12:44;31.70;99.90
15656;DHT22;7928;43.614;1.456;2023-06-14T15:15:11;31.50;99.90
15656;DHT22;7928;43.614;1.456;2023-06-14T15:17:39;31.70;99.90
15656;DHT22;7928;43.614;1.456;2023-06-14T15:20:07;31.50;99.90
15656;DHT22;7928;43.614;1.456;2023-06-14T15:22:34;31.70;99.90
15656;DHT22;7928;43.614;1.456;2023-06-14T15:25:01;31.70;99.90
15656;DHT22;7928;43.614;1.456;2023-06-14T15:27:28;30.80;99.90
15656;DHT22;7928;43.614;1.456;2023-06-14T15:29:55;31.20;99.90
15656;DHT22;7928;43.614;1.456;2023-06-14T15:32:22;31.00;99.90
15656;DHT22;7928;43.614;1.456;2023-06-14T15:34:51;30.80;99.90
15656;DHT22;7928;43.614;1.456;2023-06-14T15:37:18;30.50;99.90
15656;DHT22;7928;43.614;1.456;2023-06-14T15:39:45;31.00;99.90
15656;DHT22;7928;43.614;1.456;2023-06-14T15:42:12;30.60;99.90
15656;DHT22;7928;43.614;1.456;2023-06-14T15:44:39;31.30;99.90
15656;DHT22;7928;43.614;1.456;2023-06-14T15:47:07;30.90;99.90
15656;DHT22;7928;43.614;1.456;2023-06-14T15:49:34;30.50;99.90
15656;DHT22;7928;43.614;1.456;2023-06-14T15:52:04;30.50;99.90
15656;DHT22;7928;43.614;1.456;2023-06-14T15:54:31;29.90;99.90